sensor_id;sensor_type;location;lat;lon;timestamp;P1;durP1;ratioP1;P2;durP2;ratioP2
78799;SDS011;68148;55.328;86.106;2023-07-22T00:02:18;16.88;;;10.93;;
78799;SDS011;68148;55.328;86.106;2023-07-22T00:04:45;16.73;;;10.23;;
78799;SDS011;68148;55.328;86.106;2023-07-22T00:07:10;20.30;;;9.63;;
78799;SDS011;68148;55.328;86.106;2023-07-22T00:09:40;16.65;;;10.05;;
78799;SDS011;68148;55.328;86.106;2023-07-22T00:12:07;19.85;;;10.52;;
78799;SDS011;68148;55.328;86.106;2023-07-22T00:14:34;14.65;;;10.05;;
78799;SDS011;68148;55.328;86.106;2023-07-22T00:17:04;12.93;;;9.55;;
78799;SDS011;68148;55.328;86.106;2023-07-22T00:19:30;13.95;;;9.60;;
78799;SDS011;68148;55.328;86.106;2023-07-22T00:21:56;13.63;;;9.05;;
78799;SDS011;68148;55.328;86.106;2023-07-22T00:24:21;16.58;;;7.72;;
78799;SDS011;68148;55.328;86.106;2023-07-22T00:26:48;14.23;;;9.38;;
78799;SDS011;68148;55.328;86.106;2023-07-22T00:29:14;17.33;;;9.38;;
78799;SDS011;68148;55.328;86.106;2023-07-22T00:31:39;13.90;;;9.50;;
78799;SDS011;68148;55.328;86.106;2023-07-22T00:34:05;17.80;;;9.63;;
78799;SDS011;68148;55.328;86.106;2023-07-22T00:36:34;18.70;;;10.05;;
78799;SDS011;68148;55.328;86.106;2023-07-22T00:39:00;16.35;;;11.23;;
78799;SDS011;68148;55.328;86.106;2023-07-22T00:41:26;21.17;;;11.20;;
78799;SDS011;68148;55.328;86.106;2023-07-22T00:43:52;18.45;;;11.85;;
78799;SDS011;68148;55.328;86.106;2023-07-22T00:46:18;20.08;;;12.30;;
78799;SDS011;68148;55.328;86.106;2023-07-22T00:48:46;16.45;;;11.27;;
78799;SDS011;68148;55.328;86.106;2023-07-22T00:51:12;18.17;;;11.43;;
78799;SDS011;68148;55.328;86.106;2023-07-22T00:53:38;17.73;;;10.52;;
78799;SDS011;68148;55.328;86.106;2023-07-22T00:56:04;21.10;;;11.55;;
78799;SDS011;68148;55.328;86.106;2023-07-22T00:58:43;19.23;;;10.80;;
78799;SDS011;68148;55.328;86.106;2023-07-22T01:01:09;21.75;;;11.05;;
78799;SDS011;68148;55.328;86.106;2023-07-22T01:03:35;18.75;;;12.50;;
78799;SDS011;68148;55.328;86.106;2023-07-22T01:06:01;15.80;;;9.05;;
78799;SDS011;68148;55.328;86.106;2023-07-22T01:08:27;19.08;;;11.93;;
78799;SDS011;68148;55.328;86.106;2023-07-22T01:10:53;18.10;;;10.05;;
78799;SDS011;68148;55.328;86.106;2023-07-22T01:13:19;17.15;;;9.98;;
78799;SDS011;68148;55.328;86.106;2023-07-22T01:15:45;15.38;;;10.57;;
78799;SDS011;68148;55.328;86.106;2023-07-22T01:18:11;18.45;;;10.93;;
78799;SDS011;68148;55.328;86.106;2023-07-22T01:20:37;16.23;;;10.52;;
78799;SDS011;68148;55.328;86.106;2023-07-22T01:23:04;19.33;;;9.73;;
78799;SDS011;68148;55.328;86.106;2023-07-22T01:25:30;17.73;;;10.48;;
78799;SDS011;68148;55.328;86.106;2023-07-22T01:27:56;16.90;;;9.45;;
78799;SDS011;68148;55.328;86.106;2023-07-22T01:30:22;16.92;;;9.82;;
78799;SDS011;68148;55.328;86.106;2023-07-22T01:32:47;16.20;;;9.20;;
78799;SDS011;68148;55.328;86.106;2023-07-22T01:35:13;14.05;;;8.68;;
78799;SDS011;68148;55.328;86.106;2023-07-22T01:37:39;17.35;;;8.77;;
78799;SDS011;68148;55.328;86.106;2023-07-22T01:40:05;15.25;;;8.88;;
78799;SDS011;68148;55.328;86.106;2023-07-22T01:42:32;16.58;;;9.75;;
78799;SDS011;68148;55.328;86.106;2023-07-22T01:44:57;12.38;;;7.55;;
78799;SDS011;68148;55.328;86.106;2023-07-22T01:47:23;13.65;;;6.47;;
78799;SDS011;68148;55.328;86.106;2023-07-22T01:49:49;11.27;;;7.18;;
78799;SDS011;68148;55.328;86.106;2023-07-22T01:52:15;11.25;;;7.22;;
78799;SDS011;68148;55.328;86.106;2023-07-22T01:54:40;13.38;;;8.43;;
78799;SDS011;68148;55.328;86.106;2023-07-22T01:57:06;10.75;;;6.63;;
78799;SDS011;68148;55.328;86.106;2023-07-22T01:59:32;10.68;;;5.88;;
78799;SDS011;68148;55.328;86.106;2023-07-22T02:01:58;13.55;;;8.07;;
78799;SDS011;68148;55.328;86.106;2023-07-22T02:04:24;17.40;;;9.27;;
78799;SDS011;68148;55.328;86.106;2023-07-22T02:06:50;11.65;;;7.00;;
78799;SDS011;68148;55.328;86.106;2023-07-22T02:09:16;14.70;;;6.65;;
78799;SDS011;68148;55.328;86.106;2023-07-22T02:11:42;11.20;;;5.80;;
78799;SDS011;68148;55.328;86.106;2023-07-22T02:14:08;9.38;;;5.63;;
78799;SDS011;68148;55.328;86.106;2023-07-22T02:16:37;10.27;;;5.15;;
78799;SDS011;68148;55.328;86.106;2023-07-22T02:19:05;6.63;;;4.47;;
78799;SDS011;68148;55.328;86.106;2023-07-22T02:21:31;9.88;;;4.72;;
78799;SDS011;68148;55.328;86.106;2023-07-22T02:23:57;9.13;;;4.93;;
78799;SDS011;68148;55.328;86.106;2023-07-22T02:26:23;7.28;;;5.05;;
78799;SDS011;68148;55.328;86.106;2023-07-22T02:28:48;7.43;;;4.30;;
78799;SDS011;68148;55.328;86.106;2023-07-22T02:31:14;10.57;;;4.80;;
78799;SDS011;68148;55.328;86.106;2023-07-22T02:33:40;6.18;;;4.25;;
78799;SDS011;68148;55.328;86.106;2023-07-22T02:36:06;6.50;;;4.10;;
78799;SDS011;68148;55.328;86.106;2023-07-22T02:38:32;6.43;;;4.30;;
78799;SDS011;68148;55.328;86.106;2023-07-22T02:41:01;9.38;;;4.70;;
78799;SDS011;68148;55.328;86.106;2023-07-22T02:43:31;9.05;;;3.63;;
78799;SDS011;68148;55.328;86.106;2023-07-22T02:45:56;9.98;;;4.72;;
78799;SDS011;68148;55.328;86.106;2023-07-22T02:48:22;9.70;;;4.38;;
78799;SDS011;68148;55.328;86.106;2023-07-22T02:50:48;10.32;;;4.65;;
78799;SDS011;68148;55.328;86.106;2023-07-22T02:53:14;8.32;;;4.38;;
78799;SDS011;68148;55.328;86.106;2023-07-22T02:55:40;8.32;;;4.90;;
78799;SDS011;68148;55.328;86.106;2023-07-22T02:58:06;11.85;;;5.25;;
78799;SDS011;68148;55.328;86.106;2023-07-22T03:00:33;8.35;;;4.70;;
78799;SDS011;68148;55.328;86.106;2023-07-22T03:02:58;8.00;;;5.20;;
78799;SDS011;68148;55.328;86.106;2023-07-22T03:05:24;8.07;;;4.60;;
78799;SDS011;68148;55.328;86.106;2023-07-22T03:07:53;11.43;;;5.53;;
78799;SDS011;68148;55.328;86.106;2023-07-22T03:10:19;7.82;;;4.97;;
78799;SDS011;68148;55.328;86.106;2023-07-22T03:12:45;16.27;;;5.63;;
78799;SDS011;68148;55.328;86.106;2023-07-22T03:15:10;7.20;;;4.65;;
78799;SDS011;68148;55.328;86.106;2023-07-22T03:17:37;9.43;;;4.53;;
78799;SDS011;68148;55.328;86.106;2023-07-22T03:20:06;7.47;;;4.80;;
78799;SDS011;68148;55.328;86.106;2023-07-22T03:22:33;9.45;;;4.63;;
78799;SDS011;68148;55.328;86.106;2023-07-22T03:24:59;6.40;;;3.78;;
78799;SDS011;68148;55.328;86.106;2023-07-22T03:27:24;9.80;;;4.03;;
78799;SDS011;68148;55.328;86.106;2023-07-22T03:29:50;8.43;;;3.60;;
78799;SDS011;68148;55.328;86.106;2023-07-22T03:32:16;5.57;;;3.10;;
78799;SDS011;68148;55.328;86.106;2023-07-22T03:34:42;10.30;;;3.55;;
78799;SDS011;68148;55.328;86.106;2023-07-22T03:37:08;5.93;;;2.85;;
78799;SDS011;68148;55.328;86.106;2023-07-22T03:39:34;5.22;;;2.78;;
78799;SDS011;68148;55.328;86.106;2023-07-22T03:42:00;6.30;;;2.90;;
78799;SDS011;68148;55.328;86.106;2023-07-22T03:44:26;5.43;;;3.03;;
78799;SDS011;68148;55.328;86.106;2023-07-22T03:47:00;4.22;;;2.40;;
78799;SDS011;68148;55.328;86.106;2023-07-22T03:49:28;8.35;;;3.03;;
78799;SDS011;68148;55.328;86.106;2023-07-22T03:51:54;6.97;;;3.45;;
78799;SDS011;68148;55.328;86.106;2023-07-22T03:54:20;6.72;;;2.75;;
78799;SDS011;68148;55.328;86.106;2023-07-22T03:56:45;7.63;;;2.53;;
78799;SDS011;68148;55.328;86.106;2023-07-22T03:59:11;5.30;;;2.95;;
78799;SDS011;68148;55.328;86.106;2023-07-22T04:01:37;6.88;;;2.72;;
78799;SDS011;68148;55.328;86.106;2023-07-22T04:04:03;14.63;;;3.17;;
78799;SDS011;68148;55.328;86.106;2023-07-22T04:06:29;7.00;;;3.10;;
78799;SDS011;68148;55.328;86.106;2023-07-22T04:08:54;3.65;;;2.50;;
78799;SDS011;68148;55.328;86.106;2023-07-22T04:11:20;11.73;;;2.33;;
78799;SDS011;68148;55.328;86.106;2023-07-22T04:13:46;5.00;;;2.80;;
78799;SDS011;68148;55.328;86.106;2023-07-22T04:16:11;6.88;;;2.13;;
78799;SDS011;68148;55.328;86.106;2023-07-22T04:18:37;4.00;;;2.40;;
78799;SDS011;68148;55.328;86.106;2023-07-22T04:21:03;3.85;;;2.22;;
78799;SDS011;68148;55.328;86.106;2023-07-22T04:23:29;8.15;;;1.95;;
78799;SDS011;68148;55.328;86.106;2023-07-22T04:25:54;6.47;;;1.90;;
78799;SDS011;68148;55.328;86.106;2023-07-22T04:28:20;3.13;;;1.80;;
78799;SDS011;68148;55.328;86.106;2023-07-22T04:30:54;3.17;;;1.98;;
78799;SDS011;68148;55.328;86.106;2023-07-22T04:33:20;4.35;;;1.83;;
78799;SDS011;68148;55.328;86.106;2023-07-22T04:35:46;4.25;;;1.63;;
78799;SDS011;68148;55.328;86.106;2023-07-22T04:38:12;3.97;;;1.60;;
78799;SDS011;68148;55.328;86.106;2023-07-22T04:40:42;4.28;;;1.55;;
78799;SDS011;68148;55.328;86.106;2023-07-22T04:43:08;3.97;;;1.85;;
78799;SDS011;68148;55.328;86.106;2023-07-22T04:45:34;4.20;;;2.05;;
78799;SDS011;68148;55.328;86.106;2023-07-22T04:48:00;16.17;;;2.25;;
78799;SDS011;68148;55.328;86.106;2023-07-22T04:50:26;6.25;;;1.77;;
78799;SDS011;68148;55.328;86.106;2023-07-22T04:52:53;4.95;;;2.15;;
78799;SDS011;68148;55.328;86.106;2023-07-22T04:55:20;6.03;;;2.10;;
78799;SDS011;68148;55.328;86.106;2023-07-22T04:57:48;8.57;;;2.38;;
78799;SDS011;68148;55.328;86.106;2023-07-22T05:00:13;5.43;;;2.38;;
78799;SDS011;68148;55.328;86.106;2023-07-22T05:02:40;5.97;;;2.50;;
78799;SDS011;68148;55.328;86.106;2023-07-22T05:05:06;5.35;;;2.35;;
78799;SDS011;68148;55.328;86.106;2023-07-22T05:07:32;6.55;;;2.65;;
78799;SDS011;68148;55.328;86.106;2023-07-22T05:09:58;7.28;;;3.05;;
78799;SDS011;68148;55.328;86.106;2023-07-22T05:12:24;5.13;;;2.20;;
78799;SDS011;68148;55.328;86.106;2023-07-22T05:14:50;9.20;;;3.08;;
78799;SDS011;68148;55.328;86.106;2023-07-22T05:17:15;6.55;;;3.40;;
78799;SDS011;68148;55.328;86.106;2023-07-22T05:19:41;6.55;;;3.70;;
78799;SDS011;68148;55.328;86.106;2023-07-22T05:22:08;12.68;;;3.58;;
78799;SDS011;68148;55.328;86.106;2023-07-22T05:24:34;11.32;;;3.58;;
78799;SDS011;68148;55.328;86.106;2023-07-22T05:27:00;8.02;;;3.22;;
78799;SDS011;68148;55.328;86.106;2023-07-22T05:29:25;7.82;;;3.50;;
78799;SDS011;68148;55.328;86.106;2023-07-22T05:31:51;8.07;;;3.30;;
78799;SDS011;68148;55.328;86.106;2023-07-22T05:34:23;11.57;;;4.25;;
78799;SDS011;68148;55.328;86.106;2023-07-22T05:36:48;7.68;;;3.40;;
78799;SDS011;68148;55.328;86.106;2023-07-22T05:39:14;6.68;;;3.47;;
78799;SDS011;68148;55.328;86.106;2023-07-22T05:41:40;7.85;;;3.88;;
78799;SDS011;68148;55.328;86.106;2023-07-22T05:44:06;8.27;;;3.95;;
78799;SDS011;68148;55.328;86.106;2023-07-22T05:46:31;4.10;;;2.88;;
78799;SDS011;68148;55.328;86.106;2023-07-22T05:48:57;5.45;;;3.08;;
78799;SDS011;68148;55.328;86.106;2023-07-22T05:51:23;4.53;;;3.03;;
78799;SDS011;68148;55.328;86.106;2023-07-22T05:53:49;6.05;;;3.10;;
78799;SDS011;68148;55.328;86.106;2023-07-22T05:56:14;4.63;;;2.55;;
78799;SDS011;68148;55.328;86.106;2023-07-22T05:58:40;4.60;;;2.58;;
78799;SDS011;68148;55.328;86.106;2023-07-22T06:01:06;4.10;;;2.75;;
78799;SDS011;68148;55.328;86.106;2023-07-22T06:03:31;6.78;;;2.70;;
78799;SDS011;68148;55.328;86.106;2023-07-22T06:05:57;4.50;;;3.00;;
78799;SDS011;68148;55.328;86.106;2023-07-22T06:08:23;7.07;;;2.78;;
78799;SDS011;68148;55.328;86.106;2023-07-22T06:10:48;4.85;;;2.35;;
78799;SDS011;68148;55.328;86.106;2023-07-22T06:13:14;9.90;;;3.63;;
78799;SDS011;68148;55.328;86.106;2023-07-22T06:15:40;7.20;;;3.15;;
78799;SDS011;68148;55.328;86.106;2023-07-22T06:18:06;7.68;;;3.28;;
78799;SDS011;68148;55.328;86.106;2023-07-22T06:20:31;6.05;;;3.40;;
78799;SDS011;68148;55.328;86.106;2023-07-22T06:22:57;4.88;;;3.78;;
78799;SDS011;68148;55.328;86.106;2023-07-22T06:25:23;6.82;;;3.30;;
78799;SDS011;68148;55.328;86.106;2023-07-22T06:27:48;5.18;;;3.10;;
78799;SDS011;68148;55.328;86.106;2023-07-22T06:30:14;6.43;;;3.47;;
78799;SDS011;68148;55.328;86.106;2023-07-22T06:32:40;5.22;;;3.35;;
78799;SDS011;68148;55.328;86.106;2023-07-22T06:35:06;4.78;;;3.15;;
78799;SDS011;68148;55.328;86.106;2023-07-22T06:37:32;7.05;;;3.50;;
78799;SDS011;68148;55.328;86.106;2023-07-22T06:39:57;5.47;;;2.70;;
78799;SDS011;68148;55.328;86.106;2023-07-22T06:42:23;7.00;;;2.80;;
78799;SDS011;68148;55.328;86.106;2023-07-22T06:44:49;6.28;;;3.13;;
78799;SDS011;68148;55.328;86.106;2023-07-22T06:47:15;4.57;;;2.67;;
78799;SDS011;68148;55.328;86.106;2023-07-22T06:49:41;6.13;;;2.90;;
78799;SDS011;68148;55.328;86.106;2023-07-22T06:52:07;4.53;;;3.30;;
78799;SDS011;68148;55.328;86.106;2023-07-22T06:54:33;5.15;;;3.00;;
78799;SDS011;68148;55.328;86.106;2023-07-22T06:56:59;4.63;;;2.72;;
78799;SDS011;68148;55.328;86.106;2023-07-22T06:59:24;5.93;;;2.85;;
78799;SDS011;68148;55.328;86.106;2023-07-22T07:01:50;7.18;;;2.78;;
78799;SDS011;68148;55.328;86.106;2023-07-22T07:04:16;5.95;;;2.50;;
78799;SDS011;68148;55.328;86.106;2023-07-22T07:06:42;3.63;;;1.90;;
78799;SDS011;68148;55.328;86.106;2023-07-22T07:09:08;4.40;;;2.30;;
78799;SDS011;68148;55.328;86.106;2023-07-22T07:11:34;4.60;;;2.42;;
78799;SDS011;68148;55.328;86.106;2023-07-22T07:13:59;3.85;;;2.65;;
78799;SDS011;68148;55.328;86.106;2023-07-22T07:16:26;5.70;;;3.22;;
78799;SDS011;68148;55.328;86.106;2023-07-22T07:18:54;4.30;;;2.90;;
78799;SDS011;68148;55.328;86.106;2023-07-22T07:21:20;3.47;;;2.70;;
78799;SDS011;68148;55.328;86.106;2023-07-22T07:23:50;8.00;;;2.45;;
78799;SDS011;68148;55.328;86.106;2023-07-22T07:26:17;3.92;;;2.30;;
78799;SDS011;68148;55.328;86.106;2023-07-22T07:28:43;2.95;;;2.17;;
78799;SDS011;68148;55.328;86.106;2023-07-22T07:31:09;3.78;;;1.80;;
78799;SDS011;68148;55.328;86.106;2023-07-22T07:33:36;3.25;;;2.30;;
78799;SDS011;68148;55.328;86.106;2023-07-22T07:36:01;3.95;;;1.83;;
78799;SDS011;68148;55.328;86.106;2023-07-22T07:38:27;3.00;;;1.73;;
78799;SDS011;68148;55.328;86.106;2023-07-22T07:40:56;3.03;;;1.60;;
78799;SDS011;68148;55.328;86.106;2023-07-22T07:43:24;4.15;;;2.35;;
78799;SDS011;68148;55.328;86.106;2023-07-22T07:45:50;3.38;;;1.60;;
78799;SDS011;68148;55.328;86.106;2023-07-22T07:48:16;2.70;;;1.50;;
78799;SDS011;68148;55.328;86.106;2023-07-22T07:50:42;5.90;;;1.75;;
78799;SDS011;68148;55.328;86.106;2023-07-22T07:53:08;3.78;;;2.20;;
78799;SDS011;68148;55.328;86.106;2023-07-22T07:55:35;4.25;;;1.80;;
78799;SDS011;68148;55.328;86.106;2023-07-22T07:58:20;2.97;;;2.00;;
78799;SDS011;68148;55.328;86.106;2023-07-22T08:00:45;3.20;;;1.85;;
78799;SDS011;68148;55.328;86.106;2023-07-22T08:03:11;2.08;;;1.67;;
78799;SDS011;68148;55.328;86.106;2023-07-22T08:05:37;2.15;;;1.50;;
78799;SDS011;68148;55.328;86.106;2023-07-22T08:08:03;2.55;;;1.80;;
78799;SDS011;68148;55.328;86.106;2023-07-22T08:10:29;4.63;;;1.80;;
78799;SDS011;68148;55.328;86.106;2023-07-22T08:12:55;2.38;;;1.70;;
78799;SDS011;68148;55.328;86.106;2023-07-22T08:15:21;3.33;;;1.27;;
78799;SDS011;68148;55.328;86.106;2023-07-22T08:17:47;4.40;;;1.90;;
78799;SDS011;68148;55.328;86.106;2023-07-22T08:20:13;2.22;;;1.60;;
78799;SDS011;68148;55.328;86.106;2023-07-22T08:22:39;3.15;;;2.05;;
78799;SDS011;68148;55.328;86.106;2023-07-22T08:25:05;2.17;;;1.70;;
78799;SDS011;68148;55.328;86.106;2023-07-22T08:27:31;2.53;;;1.90;;
78799;SDS011;68148;55.328;86.106;2023-07-22T08:29:57;2.75;;;1.50;;
78799;SDS011;68148;55.328;86.106;2023-07-22T08:32:22;5.20;;;1.27;;
78799;SDS011;68148;55.328;86.106;2023-07-22T08:34:48;5.07;;;1.73;;
78799;SDS011;68148;55.328;86.106;2023-07-22T08:37:14;1.80;;;1.52;;
78799;SDS011;68148;55.328;86.106;2023-07-22T08:39:40;4.53;;;1.92;;
78799;SDS011;68148;55.328;86.106;2023-07-22T08:42:06;2.40;;;1.60;;
78799;SDS011;68148;55.328;86.106;2023-07-22T08:46:58;2.20;;;1.77;;
78799;SDS011;68148;55.328;86.106;2023-07-22T08:49:25;3.70;;;1.63;;
78799;SDS011;68148;55.328;86.106;2023-07-22T08:54:19;2.67;;;1.83;;
78799;SDS011;68148;55.328;86.106;2023-07-22T08:56:45;6.20;;;2.20;;
78799;SDS011;68148;55.328;86.106;2023-07-22T08:59:11;5.32;;;2.55;;
78799;SDS011;68148;55.328;86.106;2023-07-22T09:01:41;2.47;;;1.80;;
78799;SDS011;68148;55.328;86.106;2023-07-22T09:04:08;5.03;;;2.25;;
78799;SDS011;68148;55.328;86.106;2023-07-22T09:06:34;3.70;;;1.70;;
78799;SDS011;68148;55.328;86.106;2023-07-22T09:09:01;5.05;;;2.10;;
78799;SDS011;68148;55.328;86.106;2023-07-22T09:11:28;5.50;;;2.15;;
78799;SDS011;68148;55.328;86.106;2023-07-22T09:13:53;5.75;;;3.28;;
78799;SDS011;68148;55.328;86.106;2023-07-22T09:16:21;3.45;;;2.05;;
78799;SDS011;68148;55.328;86.106;2023-07-22T09:18:47;4.22;;;2.30;;
78799;SDS011;68148;55.328;86.106;2023-07-22T09:21:14;6.80;;;2.58;;
78799;SDS011;68148;55.328;86.106;2023-07-22T09:23:40;5.25;;;2.58;;
78799;SDS011;68148;55.328;86.106;2023-07-22T09:26:12;5.38;;;2.55;;
78799;SDS011;68148;55.328;86.106;2023-07-22T09:28:53;4.47;;;2.60;;
78799;SDS011;68148;55.328;86.106;2023-07-22T09:31:21;3.25;;;2.60;;
78799;SDS011;68148;55.328;86.106;2023-07-22T09:33:48;2.78;;;2.10;;
78799;SDS011;68148;55.328;86.106;2023-07-22T09:36:14;4.60;;;2.17;;
78799;SDS011;68148;55.328;86.106;2023-07-22T09:38:41;3.40;;;2.22;;
78799;SDS011;68148;55.328;86.106;2023-07-22T09:41:07;5.13;;;2.55;;
78799;SDS011;68148;55.328;86.106;2023-07-22T09:43:37;4.47;;;2.33;;
78799;SDS011;68148;55.328;86.106;2023-07-22T09:46:10;6.75;;;2.83;;
78799;SDS011;68148;55.328;86.106;2023-07-22T09:48:42;6.25;;;2.63;;
78799;SDS011;68148;55.328;86.106;2023-07-22T09:51:13;6.57;;;2.92;;
78799;SDS011;68148;55.328;86.106;2023-07-22T09:53:45;5.07;;;2.78;;
78799;SDS011;68148;55.328;86.106;2023-07-22T09:56:11;8.00;;;2.65;;
78799;SDS011;68148;55.328;86.106;2023-07-22T09:58:37;4.57;;;3.03;;
78799;SDS011;68148;55.328;86.106;2023-07-22T10:01:03;5.13;;;2.65;;
78799;SDS011;68148;55.328;86.106;2023-07-22T10:03:30;8.00;;;2.72;;
78799;SDS011;68148;55.328;86.106;2023-07-22T10:05:58;6.50;;;2.92;;
78799;SDS011;68148;55.328;86.106;2023-07-22T10:08:25;7.25;;;2.65;;
78799;SDS011;68148;55.328;86.106;2023-07-22T10:10:54;4.85;;;2.30;;
78799;SDS011;68148;55.328;86.106;2023-07-22T10:13:23;4.32;;;2.40;;
78799;SDS011;68148;55.328;86.106;2023-07-22T10:15:50;9.48;;;2.25;;
78799;SDS011;68148;55.328;86.106;2023-07-22T10:18:16;4.70;;;2.63;;
78799;SDS011;68148;55.328;86.106;2023-07-22T10:20:42;3.33;;;2.25;;
78799;SDS011;68148;55.328;86.106;2023-07-22T10:23:08;8.38;;;2.10;;
78799;SDS011;68148;55.328;86.106;2023-07-22T10:25:34;2.83;;;2.25;;
78799;SDS011;68148;55.328;86.106;2023-07-22T10:28:02;6.18;;;2.40;;
78799;SDS011;68148;55.328;86.106;2023-07-22T10:30:28;6.22;;;2.38;;
78799;SDS011;68148;55.328;86.106;2023-07-22T10:32:53;3.83;;;2.05;;
78799;SDS011;68148;55.328;86.106;2023-07-22T10:35:33;5.53;;;2.10;;
78799;SDS011;68148;55.328;86.106;2023-07-22T10:38:10;4.22;;;2.00;;
78799;SDS011;68148;55.328;86.106;2023-07-22T10:40:50;3.42;;;2.10;;
78799;SDS011;68148;55.328;86.106;2023-07-22T10:43:18;4.25;;;1.98;;
78799;SDS011;68148;55.328;86.106;2023-07-22T10:46:13;9.63;;;3.00;;
78799;SDS011;68148;55.328;86.106;2023-07-22T10:48:39;5.22;;;2.13;;
78799;SDS011;68148;55.328;86.106;2023-07-22T10:53:37;2.67;;;1.70;;
78799;SDS011;68148;55.328;86.106;2023-07-22T11:06:39;3.83;;;2.20;;
78799;SDS011;68148;55.328;86.106;2023-07-22T11:11:58;4.53;;;2.35;;
78799;SDS011;68148;55.328;86.106;2023-07-22T11:14:33;4.57;;;2.42;;
78799;SDS011;68148;55.328;86.106;2023-07-22T11:17:13;8.00;;;2.60;;
78799;SDS011;68148;55.328;86.106;2023-07-22T11:19:39;5.68;;;2.10;;
78799;SDS011;68148;55.328;86.106;2023-07-22T11:22:05;3.72;;;1.80;;
78799;SDS011;68148;55.328;86.106;2023-07-22T11:24:32;9.57;;;2.40;;
78799;SDS011;68148;55.328;86.106;2023-07-22T11:26:59;9.38;;;2.78;;
78799;SDS011;68148;55.328;86.106;2023-07-22T11:29:27;8.73;;;2.42;;
78799;SDS011;68148;55.328;86.106;2023-07-22T11:31:53;3.67;;;2.50;;
78799;SDS011;68148;55.328;86.106;2023-07-22T11:34:19;5.55;;;2.22;;
78799;SDS011;68148;55.328;86.106;2023-07-22T11:36:47;3.38;;;2.42;;
78799;SDS011;68148;55.328;86.106;2023-07-22T11:41:42;3.17;;;2.25;;
78799;SDS011;68148;55.328;86.106;2023-07-22T11:44:09;4.00;;;2.22;;
78799;SDS011;68148;55.328;86.106;2023-07-22T11:49:40;4.95;;;2.40;;
78799;SDS011;68148;55.328;86.106;2023-07-22T11:52:10;5.88;;;2.90;;
78799;SDS011;68148;55.328;86.106;2023-07-22T11:54:42;3.33;;;2.30;;
78799;SDS011;68148;55.328;86.106;2023-07-22T11:59:43;3.50;;;1.77;;
78799;SDS011;68148;55.328;86.106;2023-07-22T12:02:27;6.50;;;2.38;;
78799;SDS011;68148;55.328;86.106;2023-07-22T12:04:55;6.63;;;2.85;;
78799;SDS011;68148;55.328;86.106;2023-07-22T12:09:55;7.40;;;2.30;;
78799;SDS011;68148;55.328;86.106;2023-07-22T12:12:42;4.50;;;3.03;;
78799;SDS011;68148;55.328;86.106;2023-07-22T12:15:12;4.65;;;2.17;;
78799;SDS011;68148;55.328;86.106;2023-07-22T12:17:50;5.05;;;2.78;;
78799;SDS011;68148;55.328;86.106;2023-07-22T12:20:18;5.90;;;2.80;;
78799;SDS011;68148;55.328;86.106;2023-07-22T12:22:48;7.88;;;3.47;;
78799;SDS011;68148;55.328;86.106;2023-07-22T12:25:14;10.32;;;3.20;;
78799;SDS011;68148;55.328;86.106;2023-07-22T12:27:40;4.90;;;3.13;;
78799;SDS011;68148;55.328;86.106;2023-07-22T12:30:06;8.40;;;3.65;;
78799;SDS011;68148;55.328;86.106;2023-07-22T12:32:32;8.88;;;3.25;;
78799;SDS011;68148;55.328;86.106;2023-07-22T12:34:59;8.57;;;4.18;;
78799;SDS011;68148;55.328;86.106;2023-07-22T12:37:24;11.02;;;5.28;;
78799;SDS011;68148;55.328;86.106;2023-07-22T12:39:50;8.57;;;5.40;;
78799;SDS011;68148;55.328;86.106;2023-07-22T12:42:16;10.02;;;5.13;;
78799;SDS011;68148;55.328;86.106;2023-07-22T12:44:42;14.18;;;4.82;;
78799;SDS011;68148;55.328;86.106;2023-07-22T12:47:08;8.55;;;4.60;;
78799;SDS011;68148;55.328;86.106;2023-07-22T12:49:33;15.57;;;4.82;;
78799;SDS011;68148;55.328;86.106;2023-07-22T12:51:59;6.15;;;3.22;;
78799;SDS011;68148;55.328;86.106;2023-07-22T12:54:25;5.22;;;2.85;;
78799;SDS011;68148;55.328;86.106;2023-07-22T12:56:51;8.93;;;3.20;;
78799;SDS011;68148;55.328;86.106;2023-07-22T12:59:17;7.15;;;3.08;;
78799;SDS011;68148;55.328;86.106;2023-07-22T13:01:43;6.85;;;3.63;;
78799;SDS011;68148;55.328;86.106;2023-07-22T13:04:09;6.45;;;3.67;;
78799;SDS011;68148;55.328;86.106;2023-07-22T13:06:35;8.98;;;3.38;;
78799;SDS011;68148;55.328;86.106;2023-07-22T13:09:01;5.93;;;2.83;;
78799;SDS011;68148;55.328;86.106;2023-07-22T13:11:27;6.15;;;3.33;;
78799;SDS011;68148;55.328;86.106;2023-07-22T13:13:52;9.85;;;5.45;;
78799;SDS011;68148;55.328;86.106;2023-07-22T13:16:18;7.20;;;3.92;;
78799;SDS011;68148;55.328;86.106;2023-07-22T13:18:44;8.20;;;4.20;;
78799;SDS011;68148;55.328;86.106;2023-07-22T13:21:10;14.88;;;4.90;;
78799;SDS011;68148;55.328;86.106;2023-07-22T13:23:35;13.07;;;5.47;;
78799;SDS011;68148;55.328;86.106;2023-07-22T13:26:01;10.20;;;5.35;;
78799;SDS011;68148;55.328;86.106;2023-07-22T13:28:27;19.63;;;6.93;;
78799;SDS011;68148;55.328;86.106;2023-07-22T13:30:53;13.57;;;6.15;;
78799;SDS011;68148;55.328;86.106;2023-07-22T13:33:19;10.25;;;5.75;;
78799;SDS011;68148;55.328;86.106;2023-07-22T13:35:45;9.35;;;6.28;;
78799;SDS011;68148;55.328;86.106;2023-07-22T13:38:12;11.10;;;6.53;;
78799;SDS011;68148;55.328;86.106;2023-07-22T13:40:38;12.38;;;6.75;;
78799;SDS011;68148;55.328;86.106;2023-07-22T13:43:07;11.85;;;5.72;;
78799;SDS011;68148;55.328;86.106;2023-07-22T13:45:33;11.25;;;7.30;;
78799;SDS011;68148;55.328;86.106;2023-07-22T13:47:58;13.60;;;8.02;;
78799;SDS011;68148;55.328;86.106;2023-07-22T13:50:27;14.63;;;7.88;;
78799;SDS011;68148;55.328;86.106;2023-07-22T13:52:56;13.75;;;7.57;;
78799;SDS011;68148;55.328;86.106;2023-07-22T13:55:21;14.00;;;8.63;;
78799;SDS011;68148;55.328;86.106;2023-07-22T13:57:47;13.73;;;7.72;;
78799;SDS011;68148;55.328;86.106;2023-07-22T14:00:13;12.63;;;7.32;;
78799;SDS011;68148;55.328;86.106;2023-07-22T14:02:39;12.52;;;7.22;;
78799;SDS011;68148;55.328;86.106;2023-07-22T14:05:06;10.07;;;5.65;;
78799;SDS011;68148;55.328;86.106;2023-07-22T14:07:32;10.93;;;5.43;;
78799;SDS011;68148;55.328;86.106;2023-07-22T14:09:58;9.05;;;5.45;;
78799;SDS011;68148;55.328;86.106;2023-07-22T14:12:24;7.82;;;5.00;;
78799;SDS011;68148;55.328;86.106;2023-07-22T14:14:50;7.00;;;4.50;;
78799;SDS011;68148;55.328;86.106;2023-07-22T14:17:15;10.02;;;3.70;;
78799;SDS011;68148;55.328;86.106;2023-07-22T14:19:44;6.43;;;3.40;;
78799;SDS011;68148;55.328;86.106;2023-07-22T14:22:10;5.60;;;2.67;;
78799;SDS011;68148;55.328;86.106;2023-07-22T14:24:36;5.03;;;3.30;;
78799;SDS011;68148;55.328;86.106;2023-07-22T14:27:02;6.70;;;3.00;;
78799;SDS011;68148;55.328;86.106;2023-07-22T14:29:27;7.22;;;3.50;;
78799;SDS011;68148;55.328;86.106;2023-07-22T14:31:55;4.18;;;2.35;;
78799;SDS011;68148;55.328;86.106;2023-07-22T14:34:21;6.47;;;2.95;;
78799;SDS011;68148;55.328;86.106;2023-07-22T14:36:47;8.18;;;2.90;;
78799;SDS011;68148;55.328;86.106;2023-07-22T14:39:13;4.75;;;2.53;;
78799;SDS011;68148;55.328;86.106;2023-07-22T14:41:40;7.88;;;3.03;;
78799;SDS011;68148;55.328;86.106;2023-07-22T14:44:06;6.75;;;2.85;;
78799;SDS011;68148;55.328;86.106;2023-07-22T14:46:32;4.45;;;2.67;;
78799;SDS011;68148;55.328;86.106;2023-07-22T14:48:58;5.75;;;3.50;;
78799;SDS011;68148;55.328;86.106;2023-07-22T14:51:24;4.43;;;2.78;;
78799;SDS011;68148;55.328;86.106;2023-07-22T14:53:52;5.95;;;2.92;;
78799;SDS011;68148;55.328;86.106;2023-07-22T14:56:18;6.03;;;2.20;;
78799;SDS011;68148;55.328;86.106;2023-07-22T14:58:46;6.38;;;3.13;;
78799;SDS011;68148;55.328;86.106;2023-07-22T15:01:12;5.25;;;3.00;;